createdAt,value
2019-04-30T00:02:27.897Z,8.90
2019-04-30T00:04:56.522Z,8.90
2019-04-30T00:07:24.968Z,8.80
2019-04-30T00:09:53.881Z,8.70
2019-04-30T00:12:25.646Z,8.70
2019-04-30T00:14:55.048Z,8.70
2019-04-30T00:17:25.544Z,8.60
2019-04-30T00:19:55.829Z,8.50
2019-04-30T00:22:33.396Z,8.40
2019-04-30T00:24:55.606Z,8.40
2019-04-30T00:27:26.378Z,8.40
2019-04-30T00:29:55.779Z,8.40
2019-04-30T00:32:25.840Z,8.30
2019-04-30T00:34:55.649Z,8.30
2019-04-30T00:37:25.472Z,8.20
2019-04-30T00:39:55.590Z,8.20
2019-04-30T00:42:28.002Z,8.20
2019-04-30T00:44:55.310Z,8.20
2019-04-30T00:47:25.676Z,8.10
2019-04-30T00:49:58.905Z,8.10
2019-04-30T00:52:25.305Z,8.20
2019-04-30T00:54:55.327Z,8.20
2019-04-30T00:57:26.323Z,8.30
2019-04-30T00:59:54.907Z,8.30
2019-04-30T01:02:40.539Z,8.40
2019-04-30T01:05:10.868Z,8.40
2019-04-30T01:07:40.069Z,8.30
2019-04-30T01:10:11.264Z,8.30
2019-04-30T01:12:44.951Z,8.20
2019-04-30T01:15:11.108Z,8.10
2019-04-30T01:17:40.871Z,8.00
2019-04-30T01:20:11.181Z,8.00
2019-04-30T01:22:39.600Z,7.90
2019-04-30T01:25:13.304Z,7.90
2019-04-30T01:27:45.308Z,7.80
2019-04-30T01:30:13.404Z,7.80
2019-04-30T01:32:39.816Z,7.80
2019-04-30T01:35:08.892Z,7.80
2019-04-30T01:37:38.676Z,7.70
2019-04-30T01:40:13.493Z,7.70
2019-04-30T01:42:41.160Z,7.70
2019-04-30T01:45:08.818Z,7.80
2019-04-30T01:47:37.259Z,7.80
2019-04-30T01:50:09.243Z,7.80
2019-04-30T01:52:53.370Z,7.90
2019-04-30T01:55:41.508Z,8.00
2019-04-30T01:58:11.695Z,8.00
2019-04-30T02:00:41.765Z,7.90
2019-04-30T02:03:11.203Z,7.90
2019-04-30T02:05:40.785Z,7.90
2019-04-30T02:08:09.204Z,7.90
2019-04-30T02:10:37.630Z,7.90
2019-04-30T02:13:06.102Z,7.90
2019-04-30T02:15:34.850Z,7.90
2019-04-30T02:18:03.544Z,7.90
2019-04-30T02:20:32.320Z,8.00
2019-04-30T02:23:00.745Z,8.00
2019-04-30T02:25:29.650Z,8.00
2019-04-30T02:27:59.182Z,7.90
2019-04-30T02:30:30.481Z,7.90
2019-04-30T02:33:00.394Z,8.00
2019-04-30T02:35:42.345Z,8.00
2019-04-30T02:38:24.260Z,8.10
2019-04-30T02:40:53.681Z,8.10
2019-04-30T02:43:23.987Z,8.00
2019-04-30T02:45:54.517Z,8.00
2019-04-30T02:48:25.856Z,7.90
2019-04-30T02:50:56.926Z,7.90
2019-04-30T02:53:51.305Z,7.90
2019-04-30T02:56:21.709Z,8.00
2019-04-30T02:58:50.729Z,8.00
2019-04-30T03:01:20.266Z,8.00
2019-04-30T03:03:50.036Z,7.90
2019-04-30T03:06:20.526Z,7.80
2019-04-30T03:08:51.009Z,7.60
2019-04-30T03:11:20.641Z,7.50
2019-04-30T03:13:49.771Z,7.50
2019-04-30T03:16:20.978Z,7.40
2019-04-30T03:18:54.201Z,7.40
2019-04-30T03:21:40.728Z,7.40
2019-04-30T03:24:10.792Z,7.40
2019-04-30T03:26:40.395Z,7.30
2019-04-30T03:29:11.418Z,7.30
2019-04-30T03:31:43.771Z,7.20
2019-04-30T03:34:17.126Z,7.20
2019-04-30T03:36:40.630Z,7.10
2019-04-30T03:39:10.800Z,7.10
2019-04-30T03:41:41.203Z,7.00
2019-04-30T03:44:20.824Z,7.00
2019-04-30T03:46:40.474Z,6.80
2019-04-30T03:49:12.574Z,6.70
2019-04-30T03:51:40.300Z,6.70
2019-04-30T03:54:10.138Z,6.60
2019-04-30T03:56:40.142Z,6.60
2019-04-30T03:59:10.678Z,6.60
2019-04-30T04:01:41.076Z,6.70
2019-04-30T04:04:16.951Z,6.70
2019-04-30T04:06:49.023Z,6.70
2019-04-30T04:09:22.456Z,6.70
2019-04-30T04:11:51.218Z,6.70
2019-04-30T04:14:19.985Z,6.60
2019-04-30T04:16:50.804Z,6.60
2019-04-30T04:19:19.661Z,6.60
2019-04-30T04:21:50.751Z,6.50
2019-04-30T04:24:20.392Z,6.50
2019-04-30T04:26:50.328Z,6.60
2019-04-30T04:29:19.677Z,6.60
2019-04-30T04:31:50.242Z,6.60
2019-04-30T04:34:19.739Z,6.50
2019-04-30T04:36:50.522Z,6.50
2019-04-30T04:39:20.086Z,6.50
2019-04-30T04:41:50.269Z,6.60
2019-04-30T04:44:20.432Z,6.60
2019-04-30T04:46:50.336Z,6.60
2019-04-30T04:49:20.589Z,6.60
2019-04-30T04:51:49.602Z,6.60
2019-04-30T04:54:20.219Z,6.50
2019-04-30T04:56:53.005Z,6.50
2019-04-30T04:59:20.131Z,6.50
2019-04-30T05:01:49.057Z,6.60
2019-04-30T05:04:19.988Z,6.50
2019-04-30T05:06:49.780Z,6.50
2019-04-30T05:09:19.477Z,6.60
2019-04-30T05:11:48.775Z,6.60
2019-04-30T05:14:18.943Z,6.70
2019-04-30T05:16:48.828Z,6.70
2019-04-30T05:19:18.666Z,6.70
2019-04-30T05:21:47.249Z,6.70
2019-04-30T05:24:15.715Z,6.70
2019-04-30T05:26:44.137Z,6.70
2019-04-30T05:29:12.577Z,6.80
2019-04-30T05:31:41.044Z,6.80
2019-04-30T05:34:10.289Z,6.80
2019-04-30T05:36:42.210Z,6.90
2019-04-30T05:39:10.657Z,6.90
2019-04-30T05:41:41.153Z,7.00
2019-04-30T05:44:09.259Z,7.10
2019-04-30T05:46:39.652Z,7.30
2019-04-30T05:49:15.324Z,7.40
2019-04-30T05:51:53.550Z,7.50
2019-04-30T05:54:13.980Z,7.60
2019-04-30T05:56:42.795Z,7.80
2019-04-30T05:59:11.357Z,7.70
2019-04-30T06:01:39.787Z,7.70
2019-04-30T06:04:09.510Z,7.70
2019-04-30T06:06:38.901Z,7.60
2019-04-30T06:09:28.926Z,7.70
2019-04-30T06:11:53.508Z,7.60
2019-04-30T06:14:28.523Z,7.70
2019-04-30T06:17:10.627Z,7.80
2019-04-30T06:19:39.322Z,7.80
2019-04-30T06:22:10.737Z,7.90
2019-04-30T06:24:39.542Z,7.80
2019-04-30T06:27:10.576Z,7.90
2019-04-30T06:29:39.145Z,7.90
2019-04-30T06:32:08.646Z,7.90
2019-04-30T06:34:39.497Z,7.90
2019-04-30T06:37:09.643Z,8.00
2019-04-30T06:39:38.643Z,8.10
2019-04-30T06:42:12.465Z,8.20
2019-04-30T06:44:41.663Z,8.30
2019-04-30T06:47:09.173Z,8.50
2019-04-30T06:49:39.280Z,8.60
2019-04-30T06:52:19.555Z,8.60
2019-04-30T06:54:39.724Z,8.80
2019-04-30T06:57:09.732Z,8.90
2019-04-30T06:59:39.554Z,9.10
2019-04-30T07:02:09.052Z,9.20
2019-04-30T07:04:40.035Z,9.30
2019-04-30T07:07:09.154Z,9.40
2019-04-30T07:09:51.496Z,9.50
2019-04-30T07:12:22.971Z,9.60
2019-04-30T07:14:41.950Z,9.70
2019-04-30T07:17:10.557Z,9.90
2019-04-30T07:19:53.344Z,10.00
2019-04-30T07:22:09.203Z,10.10
2019-04-30T07:24:39.386Z,10.30
2019-04-30T07:27:09.384Z,10.40
2019-04-30T07:29:39.286Z,10.50
2019-04-30T07:32:09.462Z,10.60
2019-04-30T07:34:39.583Z,10.60
2019-04-30T07:37:16.403Z,10.70
2019-04-30T07:39:39.087Z,10.80
2019-04-30T07:42:09.251Z,10.90
2019-04-30T07:44:40.996Z,11.00
2019-04-30T07:47:09.739Z,11.30
2019-04-30T07:49:50.905Z,11.30
2019-04-30T07:52:11.237Z,11.50
2019-04-30T07:54:39.613Z,11.50
2019-04-30T07:57:09.486Z,11.70
2019-04-30T07:59:39.722Z,11.80
2019-04-30T08:02:13.847Z,12.00
2019-04-30T08:04:46.316Z,12.20
2019-04-30T08:07:14.796Z,12.40
2019-04-30T08:09:43.340Z,12.40
2019-04-30T08:12:22.143Z,12.50
2019-04-30T08:14:43.037Z,12.60
2019-04-30T08:17:11.461Z,12.60
2019-04-30T08:19:41.105Z,12.60
2019-04-30T08:22:09.729Z,12.70
2019-04-30T08:24:39.072Z,12.80
2019-04-30T08:27:09.740Z,12.80
2019-04-30T08:29:39.505Z,12.90
2019-04-30T08:32:09.026Z,13.00
2019-04-30T08:34:39.371Z,13.10
2019-04-30T08:37:17.233Z,13.20
2019-04-30T08:39:39.730Z,13.10
2019-04-30T08:42:09.017Z,13.20
2019-04-30T08:44:39.526Z,13.20
2019-04-30T08:47:08.649Z,13.30
2019-04-30T08:49:37.555Z,13.30
2019-04-30T08:52:07.416Z,13.30
2019-04-30T08:54:35.849Z,13.50
2019-04-30T08:57:04.342Z,13.60
2019-04-30T08:59:32.826Z,13.80
2019-04-30T09:02:12.915Z,13.80
2019-04-30T09:04:31.745Z,13.80
2019-04-30T09:07:00.202Z,13.80
2019-04-30T09:09:29.558Z,13.70
2019-04-30T09:11:59.199Z,13.90
2019-04-30T09:14:29.715Z,14.10
2019-04-30T09:16:59.579Z,14.10
2019-04-30T09:19:29.790Z,14.30
2019-04-30T09:21:59.033Z,14.30
2019-04-30T09:24:30.750Z,14.40
2019-04-30T09:26:59.040Z,14.30
2019-04-30T09:29:29.294Z,14.40
2019-04-30T09:31:59.442Z,14.50
2019-04-30T09:34:29.084Z,14.60
2019-04-30T09:36:58.939Z,14.80
2019-04-30T09:39:29.347Z,14.90
2019-04-30T09:41:59.423Z,14.90
2019-04-30T09:44:30.487Z,15.00
2019-04-30T09:46:58.876Z,15.00
2019-04-30T09:49:29.283Z,15.00
2019-04-30T09:51:59.496Z,15.00
2019-04-30T09:54:28.957Z,15.10
2019-04-30T09:56:59.026Z,15.10
2019-04-30T09:59:29.182Z,15.30
2019-04-30T10:01:57.785Z,15.20
2019-04-30T10:04:26.709Z,15.30
2019-04-30T10:06:55.557Z,15.40
2019-04-30T10:09:23.984Z,15.30
2019-04-30T10:12:09.712Z,15.40
2019-04-30T10:14:40.791Z,15.50
2019-04-30T10:17:10.106Z,15.50
2019-04-30T10:19:39.345Z,15.70
2019-04-30T10:22:08.982Z,15.90
2019-04-30T10:24:39.220Z,15.90
2019-04-30T10:27:12.989Z,15.90
2019-04-30T10:29:40.924Z,16.10
2019-04-30T10:32:08.814Z,16.10
2019-04-30T10:34:37.670Z,16.10
2019-04-30T10:37:06.109Z,16.20
2019-04-30T10:39:34.533Z,16.20
2019-04-30T10:42:03.415Z,16.30
2019-04-30T10:44:31.849Z,16.40
2019-04-30T10:47:00.279Z,16.50
2019-04-30T10:49:29.255Z,16.60
2019-04-30T10:51:59.375Z,16.70
2019-04-30T10:54:29.015Z,16.70
2019-04-30T10:56:59.140Z,16.70
2019-04-30T10:59:27.843Z,16.70
2019-04-30T11:01:56.288Z,16.70
2019-04-30T11:04:24.748Z,16.80
2019-04-30T11:06:53.229Z,16.90
2019-04-30T11:09:22.147Z,16.80
2019-04-30T11:11:50.606Z,16.90
2019-04-30T11:14:19.046Z,16.90
2019-04-30T11:16:51.268Z,16.90
2019-04-30T11:19:19.235Z,17.10
2019-04-30T11:21:48.142Z,17.00
2019-04-30T11:24:17.561Z,17.00
2019-04-30T11:26:49.496Z,16.90
2019-04-30T11:29:17.470Z,16.80
2019-04-30T11:32:03.171Z,16.90
2019-04-30T11:34:31.985Z,17.00
2019-04-30T11:37:00.426Z,17.00
2019-04-30T11:39:29.804Z,17.10
2019-04-30T11:41:58.672Z,17.10
2019-04-30T11:44:31.214Z,17.20
2019-04-30T11:47:00.739Z,17.00
2019-04-30T11:49:29.716Z,17.00
2019-04-30T11:51:58.142Z,17.10
2019-04-30T11:54:26.590Z,17.20
2019-04-30T11:56:55.066Z,17.20
2019-04-30T11:59:23.508Z,17.10
2019-04-30T12:01:53.943Z,17.10
2019-04-30T12:04:22.385Z,17.20
2019-04-30T12:06:51.787Z,17.30
2019-04-30T12:09:21.893Z,17.30
2019-04-30T12:11:50.715Z,17.50
2019-04-30T12:14:20.290Z,17.50
2019-04-30T12:16:50.709Z,17.40
2019-04-30T12:19:19.326Z,17.50
2019-04-30T12:21:47.754Z,17.60
2019-04-30T12:24:16.224Z,17.50
2019-04-30T12:26:44.670Z,17.50
2019-04-30T12:29:13.103Z,17.40
2019-04-30T12:31:41.573Z,17.50
2019-04-30T12:34:10.030Z,17.50
2019-04-30T12:36:38.836Z,17.60
2019-04-30T12:39:07.846Z,17.70
2019-04-30T12:41:36.313Z,17.80
2019-04-30T12:44:04.912Z,17.80
2019-04-30T12:46:33.378Z,17.80
2019-04-30T12:49:03.444Z,17.90
2019-04-30T12:51:50.566Z,18.00
2019-04-30T12:54:26.728Z,18.30
2019-04-30T12:57:13.137Z,18.00
2019-04-30T12:59:41.837Z,18.10
2019-04-30T13:02:10.273Z,18.00
2019-04-30T13:04:39.374Z,18.00
2019-04-30T13:07:10.349Z,18.10
2019-04-30T13:09:39.867Z,17.90
2019-04-30T13:12:10.375Z,17.90
2019-04-30T13:14:51.132Z,17.80
2019-04-30T13:17:08.809Z,18.00
2019-04-30T13:19:37.268Z,18.10
2019-04-30T13:22:05.728Z,18.10
2019-04-30T13:24:34.219Z,18.10
2019-04-30T13:27:02.695Z,18.10
2019-04-30T13:29:49.239Z,18.00
2019-04-30T13:32:29.239Z,17.80
2019-04-30T13:34:52.206Z,17.70
2019-04-30T13:37:20.719Z,17.60
2019-04-30T13:40:00.708Z,17.80
2019-04-30T13:42:36.769Z,17.80
2019-04-30T13:45:06.877Z,17.70
2019-04-30T13:47:35.311Z,17.70
2019-04-30T13:50:04.490Z,17.80
2019-04-30T13:52:32.971Z,17.80
2019-04-30T13:55:01.458Z,17.70
2019-04-30T13:57:29.908Z,17.60
2019-04-30T13:59:58.690Z,17.70
2019-04-30T14:02:29.542Z,17.80
2019-04-30T14:05:08.540Z,17.90
2019-04-30T14:07:40.180Z,17.90
2019-04-30T14:10:10.249Z,17.80
2019-04-30T14:12:40.693Z,17.70
2019-04-30T14:15:09.433Z,17.70
2019-04-30T14:17:39.999Z,18.00
2019-04-30T14:20:08.422Z,18.10
2019-04-30T14:22:36.874Z,17.80
2019-04-30T14:25:06.637Z,17.40
2019-04-30T14:27:35.225Z,17.30
2019-04-30T14:30:04.490Z,17.20
2019-04-30T14:32:33.976Z,17.30
2019-04-30T14:35:02.508Z,17.50
2019-04-30T14:37:31.901Z,17.60
2019-04-30T14:40:01.184Z,17.70
2019-04-30T14:42:32.343Z,17.80
2019-04-30T14:45:03.466Z,17.80
2019-04-30T14:47:34.826Z,17.70
2019-04-30T14:50:10.694Z,17.70
2019-04-30T14:52:40.958Z,17.40
2019-04-30T14:55:23.173Z,17.30
2019-04-30T14:57:56.501Z,17.10
2019-04-30T15:00:42.992Z,17.10
2019-04-30T15:03:13.061Z,17.10
2019-04-30T15:05:48.474Z,17.00
2019-04-30T15:08:11.693Z,16.90
2019-04-30T15:10:40.136Z,16.60
2019-04-30T15:13:09.717Z,16.70
2019-04-30T15:15:39.215Z,16.60
2019-04-30T15:18:09.254Z,16.40
2019-04-30T15:20:39.790Z,16.40
2019-04-30T15:23:25.369Z,16.30
2019-04-30T15:25:53.861Z,16.10
2019-04-30T15:28:22.317Z,16.10
2019-04-30T15:30:50.879Z,16.10
2019-04-30T15:33:23.747Z,16.10
2019-04-30T15:35:52.209Z,16.10
2019-04-30T15:38:22.388Z,16.10
2019-04-30T15:40:50.837Z,16.00
2019-04-30T15:43:19.272Z,15.90
2019-04-30T15:45:49.367Z,15.80
2019-04-30T15:48:19.632Z,15.70
2019-04-30T15:50:49.242Z,15.70
2019-04-30T15:53:19.389Z,15.80
2019-04-30T15:55:47.938Z,15.90
2019-04-30T15:58:33.021Z,15.90
2019-04-30T16:01:01.449Z,15.70
2019-04-30T16:03:31.593Z,15.50
2019-04-30T16:06:00.050Z,15.50
2019-04-30T16:08:30.120Z,15.50
2019-04-30T16:11:03.053Z,15.40
2019-04-30T16:13:35.936Z,15.30
2019-04-30T16:16:04.469Z,15.30
2019-04-30T16:18:44.519Z,15.50
2019-04-30T16:21:13.773Z,15.90
2019-04-30T16:23:42.276Z,16.10
2019-04-30T16:26:11.740Z,15.90
2019-04-30T16:28:40.165Z,15.90
2019-04-30T16:31:08.751Z,15.80
2019-04-30T16:33:37.213Z,15.60
2019-04-30T16:36:05.676Z,15.50
2019-04-30T16:38:34.131Z,15.50
2019-04-30T16:41:02.592Z,15.50
2019-04-30T16:43:31.269Z,15.40
2019-04-30T16:45:59.784Z,15.30
2019-04-30T16:48:29.012Z,15.30
2019-04-30T16:50:58.701Z,15.30
2019-04-30T16:53:27.327Z,15.30
2019-04-30T16:55:55.808Z,15.30
2019-04-30T16:58:24.257Z,15.30
2019-04-30T17:00:52.770Z,15.30
2019-04-30T17:03:25.633Z,15.30
2019-04-30T17:06:07.665Z,15.30
2019-04-30T17:08:40.675Z,15.10
2019-04-30T17:11:10.781Z,15.00
2019-04-30T17:13:43.823Z,15.10
2019-04-30T17:16:17.076Z,15.00
2019-04-30T17:18:46.066Z,14.70
2019-04-30T17:21:14.593Z,14.70
2019-04-30T17:23:43.049Z,14.90
2019-04-30T17:26:11.487Z,14.90
2019-04-30T17:28:39.930Z,14.70
2019-04-30T17:31:09.761Z,14.50
2019-04-30T17:33:38.276Z,14.20
2019-04-30T17:36:08.381Z,14.10
2019-04-30T17:38:36.896Z,14.00
2019-04-30T17:41:05.325Z,13.90
2019-04-30T17:43:33.761Z,13.80
2019-04-30T17:46:04.190Z,13.60
2019-04-30T17:48:32.394Z,13.40
2019-04-30T17:51:00.826Z,13.30
2019-04-30T17:53:31.948Z,13.20
2019-04-30T17:56:00.423Z,13.30
2019-04-30T17:58:28.849Z,13.20
2019-04-30T18:00:59.816Z,13.10
2019-04-30T18:03:28.933Z,13.00
2019-04-30T18:05:59.201Z,13.10
2019-04-30T18:08:27.657Z,13.10
2019-04-30T18:10:56.666Z,12.90
2019-04-30T18:13:25.149Z,12.80
2019-04-30T18:15:53.662Z,12.80
2019-04-30T18:18:26.785Z,12.60
2019-04-30T18:21:05.637Z,12.50
2019-04-30T18:23:53.929Z,12.40
2019-04-30T18:26:22.410Z,12.50
2019-04-30T18:28:50.875Z,12.40
2019-04-30T18:31:19.308Z,12.40
2019-04-30T18:33:49.253Z,12.40
2019-04-30T18:36:19.478Z,12.40
2019-04-30T18:38:47.948Z,12.30
2019-04-30T18:41:16.418Z,12.30
2019-04-30T18:43:45.843Z,12.30
2019-04-30T18:46:14.266Z,12.30
2019-04-30T18:48:42.763Z,12.30
2019-04-30T18:51:30.023Z,12.20
2019-04-30T18:53:46.845Z,12.10
2019-04-30T18:56:16.384Z,12.10
2019-04-30T18:58:48.522Z,11.90
2019-04-30T19:01:18.286Z,11.90
2019-04-30T19:03:49.053Z,11.80
2019-04-30T19:06:23.723Z,11.80
2019-04-30T19:09:00.298Z,11.70
2019-04-30T19:11:33.418Z,11.70
2019-04-30T19:14:03.544Z,11.60
2019-04-30T19:16:33.615Z,11.60
2019-04-30T19:19:03.695Z,11.60
2019-04-30T19:21:32.179Z,11.60
2019-04-30T19:24:00.675Z,11.50
2019-04-30T19:26:29.371Z,11.50
2019-04-30T19:28:58.034Z,11.40
2019-04-30T19:31:26.536Z,11.40
2019-04-30T19:33:54.988Z,11.40
2019-04-30T19:36:34.923Z,11.40
2019-04-30T19:38:53.748Z,11.30
2019-04-30T19:41:22.176Z,11.20
2019-04-30T19:43:50.679Z,11.20
2019-04-30T19:46:19.235Z,11.20
2019-04-30T19:48:50.455Z,11.10
2019-04-30T19:51:19.741Z,11.00
2019-04-30T19:53:49.070Z,11.00
2019-04-30T19:56:18.311Z,10.90
2019-04-30T19:58:59.212Z,10.90
2019-04-30T20:01:18.026Z,10.80
2019-04-30T20:03:46.809Z,10.70
2019-04-30T20:06:15.268Z,10.70
2019-04-30T20:08:43.705Z,10.70
2019-04-30T20:11:12.140Z,10.70
2019-04-30T20:13:40.586Z,10.60
2019-04-30T20:16:09.591Z,10.60
2019-04-30T20:18:39.006Z,10.40
2019-04-30T20:21:09.406Z,10.30
2019-04-30T20:23:37.903Z,10.30
2019-04-30T20:26:06.404Z,10.20
2019-04-30T20:28:40.017Z,10.20
2019-04-30T20:31:05.005Z,10.20
2019-04-30T20:33:33.455Z,10.10
2019-04-30T20:36:01.880Z,10.10
2019-04-30T20:38:31.948Z,10.00
2019-04-30T20:41:03.097Z,9.90
2019-04-30T20:43:31.756Z,9.80
2019-04-30T20:46:00.775Z,9.80
2019-04-30T20:48:30.024Z,9.80
2019-04-30T20:51:01.155Z,9.70
2019-04-30T20:53:28.777Z,9.80
2019-04-30T20:55:59.201Z,9.80
2019-04-30T20:58:27.376Z,9.80
2019-04-30T21:01:03.946Z,9.70
2019-04-30T21:03:25.951Z,9.70
2019-04-30T21:05:54.395Z,9.80
2019-04-30T21:08:22.828Z,9.80
2019-04-30T21:10:51.263Z,9.80
2019-04-30T21:13:19.700Z,9.90
2019-04-30T21:15:49.638Z,9.80
2019-04-30T21:18:19.520Z,9.80
2019-04-30T21:20:49.724Z,9.90
2019-04-30T21:23:19.493Z,9.90
2019-04-30T21:25:48.774Z,9.90
2019-04-30T21:28:19.542Z,9.90
2019-04-30T21:30:47.625Z,10.00
2019-04-30T21:33:19.356Z,10.00
2019-04-30T21:35:55.516Z,10.00
2019-04-30T21:38:24.005Z,9.90
2019-04-30T21:40:52.428Z,9.90
2019-04-30T21:43:20.893Z,9.90
2019-04-30T21:45:49.450Z,9.90
2019-04-30T21:48:19.134Z,9.90
2019-04-30T21:50:49.749Z,9.90
2019-04-30T21:53:19.533Z,9.90
2019-04-30T21:55:49.734Z,10.00
2019-04-30T21:58:20.381Z,9.90
2019-04-30T22:01:08.753Z,10.00
2019-04-30T22:03:39.447Z,10.00
2019-04-30T22:06:08.485Z,9.80
2019-04-30T22:08:38.822Z,9.60
2019-04-30T22:11:09.593Z,9.60
2019-04-30T22:13:39.473Z,9.60
2019-04-30T22:16:08.259Z,9.60
2019-04-30T22:18:36.688Z,9.50
2019-04-30T22:21:05.445Z,9.60
2019-04-30T22:23:33.879Z,9.70
2019-04-30T22:26:02.353Z,9.60
2019-04-30T22:28:30.774Z,9.70
2019-04-30T22:30:59.205Z,9.70
2019-04-30T22:33:29.204Z,9.70
2019-04-30T22:35:59.527Z,9.60
2019-04-30T22:38:29.665Z,9.60
2019-04-30T22:40:58.920Z,9.60
2019-04-30T22:43:27.670Z,9.60
2019-04-30T22:45:59.499Z,9.60
2019-04-30T22:48:28.755Z,9.60
2019-04-30T22:50:57.421Z,9.50
2019-04-30T22:53:25.880Z,9.50
2019-04-30T22:55:54.321Z,9.40
2019-04-30T22:58:22.757Z,9.40
2019-04-30T23:00:52.825Z,9.40
2019-04-30T23:03:25.645Z,9.50
2019-04-30T23:05:54.073Z,9.50
2019-04-30T23:08:22.505Z,9.60
2019-04-30T23:10:50.950Z,9.50
2019-04-30T23:13:19.416Z,9.50
2019-04-30T23:15:49.953Z,9.60
2019-04-30T23:18:18.408Z,9.70
2019-04-30T23:20:46.832Z,9.70
2019-04-30T23:23:15.257Z,9.70
2019-04-30T23:25:43.714Z,9.60
2019-04-30T23:28:12.137Z,9.60
2019-04-30T23:30:40.561Z,9.70
2019-04-30T23:33:09.089Z,9.70
2019-04-30T23:35:37.534Z,9.60
2019-04-30T23:38:05.954Z,9.50
2019-04-30T23:40:49.566Z,9.50
2019-04-30T23:43:18.533Z,9.50
2019-04-30T23:45:47.026Z,9.50
2019-04-30T23:48:15.733Z,9.50
2019-04-30T23:50:44.928Z,9.50
2019-04-30T23:53:13.389Z,9.50
2019-04-30T23:55:41.897Z,9.50
2019-04-30T23:58:10.317Z,9.40
